Voo Virtual
Olá, seja bem-vindo(a) ao Voo Virtual. Caso ainda não seja membro da nossa comunidade, registre-se, para que possa participar ativamente e ter acesso a todos os conteúdos do site.
Por favor leia as regras do fórum aqui antes de postar, para evitar advertências e suspensão.


Inverno no Brasil METAR SPECI TAF e SIGMET em 00h00 24/07/2013)

Ver o tópico anterior Ver o tópico seguinte Ir em baixo

Inverno no Brasil METAR SPECI TAF e SIGMET em 00h00 24/07/2013)

Mensagem por harmach em Ter 23 Jul 2013, 22:49

Para quem gosta de desafios, e um tempo frio para os padrões brasileiros, segue a dica!!!

SBSP 240000Z 14007KT 8000 -DZ SCT003 BKN005 OVC010 07/05 Q1024
SPECI SBSP 240037Z SPECI SBSP 240037Z 17007KT 4000 -DZ BR FEW003 OVC004 07/05 Q1025=


SBMT 240000Z 18004KT 3000 BR OVC010 08/06 Q1024
SBGR 240000Z 17003KT 4000 -DZ BR OVC004 07/07 Q1024
SBFL 240000Z 00000KT CAVOK 07/05 Q1025 
SBPA 240000Z 27006KT 9999 BKN040 07/04 Q1027

agora, pra variar... olha o local mais frio do Brasil agora!!!!


SBCT 240000Z 20008KT CAVOK 01/M02 Q1025 suicide 

e o TAF de Curitiba

[b style="font-weight : bold;"]TAF[/b]
TAF SBCT 232100Z 2400/2424 21010KT 9999 SCT020 TN01/2409Z TX10/2418Z PROB40 TEMPO 2402/2412 2000 DZ BR OVC004 BECMG 2412/2414 12008KT SCT030 RMK PCD=

TAF SBCT 232100Z 2400/2424 21010KT 9999 SCT020 TN01/2409Z TX10/2418Z PROB40 TEMPO 2402/2412 2000 DZ BR OVC004 BECMG 2412/2414 12008KT SCT030 RMK PCD=

TAF SBCT 231500Z 2318/2418 24008KT 9999 SCT015 BKN035 TN01/2409Z TX10/2418Z TEMPO 2318/2322 3000 DZ BR BKN010 BKN030 BECMG 2400/2402 8000 BKN005 BKN008 TEMPO 2402/2413 2000 DZ BR OVC004 BECMG 2413/2415 9999 SCT010 BKN020 RMK PCD=

TAF SBCT 232310Z 2406/2506 21010KT 9999 SCT020 TN01/2409Z TX10/2418Z PROB40 TEMPO 2406/2412 2000 DZ BR OVC004 BECMG 2412/2414 12006KT SCT030 RMK PCD=


_________________
Machado
IVAO VID 166553 VATSIM 880797

TAM Virtual (LATAMv Brasil) TAM3104 (CEO e Fundador) VPA VPA234 (Pilot) British Airways VA - BAW562 (Captain) American Virtual Airliners - AAL827 (CAT IV Senior Captain)

TAM Virtual (LATAMv Brasil) - tá chegando
avatar
harmach
Coronel
Coronel

Masculino
Inscrito em : 29/01/2011
Mensagens : 1361
Reputação : 118
Idade : 42
Simulador preferido : P3D / FSX
Emprego/lazer : Professor
Nacionalidade : Brasil

http://www.tamvirtual.com.br

Voltar ao Topo Ir em baixo

Re: Inverno no Brasil METAR SPECI TAF e SIGMET em 00h00 24/07/2013)

Mensagem por Daniel batista em Ter 23 Jul 2013, 22:53

Tirando SBMT (Marte) excelente escolha wink 

_________________

avatar
Daniel batista
Coronel
Coronel

Masculino
Inscrito em : 24/03/2011
Mensagens : 1049
Reputação : 32
Idade : 25
Simulador preferido : FSX
Emprego/lazer : Piloto Real. Real Pilot
Nacionalidade : Brasil

Voltar ao Topo Ir em baixo

Re: Inverno no Brasil METAR SPECI TAF e SIGMET em 00h00 24/07/2013)

Mensagem por Felipe Quagliarelo em Qua 24 Jul 2013, 01:16

SBGR 240300Z 19003KT 3500 -DZ OVC004 06/06 Q1024

sbgr continua a mesma coisa hehe

SBCT 240300Z 20005KT CAVOK M01/M03 Q1025

_________________
INTEL Core 2 Quad Q8400 2.66GHZ
ASUS P5G41T -M LX2/BR
4GB RAM DDR3 1.333MHZ
XFX Radeon HD5770 1GB
HD Samsung 1TB 32MB Buffer
Windows 7 Professional 64bits
avatar
Felipe Quagliarelo
Major
Major

Masculino
Inscrito em : 21/03/2011
Mensagens : 452
Reputação : 21
Idade : 31
Simulador preferido : Flight Simulato
Emprego/lazer : Rede do Saber
Nacionalidade : Brasil

Voltar ao Topo Ir em baixo

Re: Inverno no Brasil METAR SPECI TAF e SIGMET em 00h00 24/07/2013)

Mensagem por duduopereira em Qua 24 Jul 2013, 02:24

Aproveitando

SBLJ 240100Z 27003KT 9999 BKN015 M01/M02 Q1026=

_________________
avatar
duduopereira
Major
Major

Masculino
Inscrito em : 25/01/2012
Mensagens : 284
Reputação : 42
Idade : 18
Simulador preferido : FS2004
Emprego/lazer : Estudante
Nacionalidade : Brasil

http://virtualflightultimate.blogspot.com

Voltar ao Topo Ir em baixo

Re: Inverno no Brasil METAR SPECI TAF e SIGMET em 00h00 24/07/2013)

Mensagem por el_lopes em Qua 24 Jul 2013, 15:30

Querem trocar?cheers 


LPPT 241700Z 31012KT CAVOK 26/16 Q1017

_________________
Manuel Lopes
avatar
el_lopes
Major-Brigadeiro
Major-Brigadeiro

Masculino
Inscrito em : 28/04/2010
Mensagens : 3336
Reputação : 139
Idade : 53
Simulador preferido : FS2004
Emprego/lazer : Industria farmaceutica/Cinema,praia,viajar e aviões!
Nacionalidade : Portugal

Voltar ao Topo Ir em baixo

Ver o tópico anterior Ver o tópico seguinte Voltar ao Topo


 
Permissão deste fórum:
Você não pode responder aos tópicos neste fórum